Auburn, KY

12:06 AM CDT on October 26, 2014 (GMT -0500)
Al Bedel Road | Change Station
CLOSE
Current Station
Personal Weather Station
Location: Auburn, KY
Elevation: 650 ft
Nearby Weather Stations
Active Advisory: Special Statement

Elev 650 ft 36.84 °N, 86.78 °W | Updated 59 seconds ago

Clear
Clear
58.4 °F
Feels Like 58.4 °F
N
0.0
Wind Variable Wind from West
Gusts 0.0 mph

Today
High -- | Low -- °F
--% Chance of Precip.
Yesterday
High -- | Low -- °F
Precip. -- in
7:04 AM 5:56 PM
Waxing Crescent, 6% visible
Pressure 29.99 in
Visibility 3.0 miles
Clouds Clear
Dew Point 57 °F
Humidity 95%
Rainfall 0.00 in
Snow Depth Not available.
UV 0 out of 12
Pollen 1.40 out of 12
Air Quality Not available.
Flu Activity Sporadic
METAR KBWG 260453Z AUTO 00000KT 3SM BR CLR 14/13 A3000 RMK AO2 SLP156 T01440128

More Conditions Fewer Conditions

Pressure 29.99 in
Visibility 3.0 miles
Clouds Clear
Dew Point 57 °F
Humidity 95%
Rainfall 0.00 in
Snow Depth Not available.
UV 0 out of 12
Pollen 1.40 out of 12
Air Quality Not available.
Flu Activity Sporadic
METAR KBWG 260453Z AUTO 00000KT 3SM BR CLR 14/13 A3000 RMK AO2 SLP156 T01440128

More Conditions Fewer Conditions

10-Day Weather Forecast

Almanac

Astronomy

Oct. 26, 2014 Rise Set
Actual Time 7:04 AM CDT 5:56 PM CDT
Civil Twilight 6:38 AM CDT 6:22 PM CDT
Nautical Twilight 6:07 AM CDT 6:53 PM CDT
Astronomical Twilight 5:37 AM CDT 7:23 PM CDT
Moon 9:39 AM CDT 8:10 PM CDT
Length of Visible Light 11h 44m
Length of Day
10h 51m
Tomorrow will be 2m 9s shorter.
Waxing Crescent, 6% of the Moon is Illuminated
Today
Waxing Crescent
Oct 30
First Quarter
Nov 6
Full
Nov 14
Last Quarter
Nov 22
New

Today's Extremes

State Highs State Lows

Community

WunderPhotos

Upload Photos

1,765,111 photos uploaded!

Nearby

Snow Depth

Station Depth Elevation
No new snow has been reported.

Earthquake Activity

City Distance Mag. Time & Date
No recent earthquake activity has been reported nearby.
Minimum magnitude displayed is 2.5.

Coastal Water Temperatures

Place Temperature
No Stations Reporting

Nearby Weather Stations